createdAt,value
2023-04-09T00:00:30.885Z,958.5316
2023-04-09T00:01:32.527Z,958.5146
2023-04-09T00:02:34.134Z,958.5070
2023-04-09T00:03:35.975Z,958.4977
2023-04-09T00:04:37.512Z,958.5046
2023-04-09T00:05:39.045Z,958.4777
2023-04-09T00:06:40.729Z,958.4585
2023-04-09T00:07:44.498Z,958.4523
2023-04-09T00:08:44.001Z,958.4608
2023-04-09T00:09:45.795Z,958.4554
2023-04-09T00:10:47.419Z,958.4684
2023-04-09T00:11:49.014Z,958.5115
2023-04-09T00:12:50.658Z,958.5031
2023-04-09T00:13:52.355Z,958.4792
2023-04-09T00:14:53.949Z,958.4577
2023-04-09T00:15:55.639Z,958.4492
2023-04-09T00:16:57.327Z,958.4285
2023-04-09T00:17:58.941Z,958.4438
2023-04-09T00:19:00.566Z,958.4623
2023-04-09T00:20:02.230Z,958.4231
2023-04-09T00:21:03.874Z,958.3669
2023-04-09T00:22:05.538Z,958.3985
2023-04-09T00:23:07.217Z,958.4100
2023-04-09T00:24:08.741Z,958.3947
2023-04-09T00:25:10.451Z,958.3892
2023-04-09T00:26:12.178Z,958.3600
2023-04-09T00:27:13.870Z,958.3215
2023-04-09T00:28:15.471Z,958.3115
2023-04-09T00:29:17.208Z,958.3123
2023-04-09T00:30:18.800Z,958.3192
2023-04-09T00:31:20.877Z,958.3369
2023-04-09T00:32:22.075Z,958.3138
2023-04-09T00:33:23.652Z,958.2915
2023-04-09T00:34:25.336Z,958.3008
2023-04-09T00:35:26.974Z,958.3008
2023-04-09T00:36:28.728Z,958.2861
2023-04-09T00:37:30.315Z,958.2739
2023-04-09T00:38:31.999Z,958.2570
2023-04-09T00:39:33.621Z,958.2323
2023-04-09T00:40:35.255Z,958.2361
2023-04-09T00:41:37.009Z,958.2462
2023-04-09T00:42:38.590Z,958.2300
2023-04-09T00:43:40.274Z,958.2161
2023-04-09T00:44:41.810Z,958.2023
2023-04-09T00:45:43.536Z,958.2085
2023-04-09T00:46:45.106Z,958.2146
2023-04-09T00:47:47.383Z,958.2123
2023-04-09T00:48:48.510Z,958.2585
2023-04-09T00:49:50.179Z,958.2877
2023-04-09T00:50:51.748Z,958.2816
2023-04-09T00:51:53.387Z,958.2731
2023-04-09T00:52:55.154Z,958.2631
2023-04-09T00:53:56.788Z,958.2600
2023-04-09T00:54:58.439Z,958.2670
2023-04-09T00:56:00.031Z,958.2562
2023-04-09T00:57:01.678Z,958.2631
2023-04-09T00:58:03.432Z,958.2562
2023-04-09T00:59:05.370Z,958.2477
2023-04-09T01:00:06.718Z,958.2200
2023-04-09T01:01:08.398Z,958.1946
2023-04-09T01:02:10.922Z,958.1777
2023-04-09T01:03:12.029Z,958.2069
2023-04-09T01:04:13.346Z,958.2253
2023-04-09T01:05:14.928Z,958.2354
2023-04-09T01:06:16.538Z,958.2315
2023-04-09T01:07:18.281Z,958.2246
2023-04-09T01:08:20.103Z,958.2253
2023-04-09T01:09:21.565Z,958.2292
2023-04-09T01:10:23.206Z,958.2238
2023-04-09T01:11:24.982Z,958.2346
2023-04-09T01:12:26.511Z,958.2015
2023-04-09T01:13:28.223Z,958.1738
2023-04-09T01:14:29.940Z,958.1623
2023-04-09T01:15:31.524Z,958.1838
2023-04-09T01:16:33.136Z,958.1700
2023-04-09T01:17:34.892Z,958.1569
2023-04-09T01:18:36.505Z,958.1646
2023-04-09T01:19:38.124Z,958.1516
2023-04-09T01:20:39.828Z,958.1615
2023-04-09T01:21:41.423Z,958.1677
2023-04-09T01:22:43.078Z,958.1539
2023-04-09T01:23:44.791Z,958.1508
2023-04-09T01:24:46.398Z,958.1554
2023-04-09T01:25:48.068Z,958.1339
2023-04-09T01:26:49.701Z,958.1331
2023-04-09T01:27:51.345Z,958.1262
2023-04-09T01:28:53.459Z,958.1154
2023-04-09T01:29:54.675Z,958.1100
2023-04-09T01:30:56.455Z,958.1138
2023-04-09T01:31:57.966Z,958.1092
2023-04-09T01:33:00.036Z,958.0923
2023-04-09T01:34:01.414Z,958.0839
2023-04-09T01:35:02.905Z,958.0715
2023-04-09T01:36:04.719Z,958.0831
2023-04-09T01:37:06.294Z,958.0954
2023-04-09T01:38:07.898Z,958.0885
2023-04-09T01:39:09.611Z,958.0862
2023-04-09T01:40:11.340Z,958.0670
2023-04-09T01:41:12.763Z,958.0615
2023-04-09T01:42:14.450Z,958.0823
2023-04-09T01:43:16.089Z,958.0892
2023-04-09T01:44:17.733Z,958.0739
2023-04-09T01:45:19.460Z,958.0708
2023-04-09T01:46:21.134Z,958.0739
2023-04-09T01:47:22.701Z,958.0630
2023-04-09T01:48:24.355Z,958.0823
2023-04-09T01:49:26.155Z,958.1038
2023-04-09T01:50:27.827Z,958.1185
2023-04-09T01:51:29.362Z,958.1392
2023-04-09T01:52:31.778Z,958.1569
2023-04-09T01:53:32.756Z,958.1592
2023-04-09T01:54:34.509Z,958.1669
2023-04-09T01:55:36.046Z,958.1761
2023-04-09T01:56:37.760Z,958.1830
2023-04-09T01:57:39.326Z,958.1938
2023-04-09T01:58:41.040Z,958.2177
2023-04-09T01:59:42.646Z,958.1985
2023-04-09T02:00:45.286Z,958.1892
2023-04-09T02:01:46.966Z,958.1769
2023-04-09T02:02:47.749Z,958.1870
2023-04-09T02:03:49.389Z,958.1761
2023-04-09T02:04:51.165Z,958.1877
2023-04-09T02:05:52.939Z,958.2039
2023-04-09T02:06:54.257Z,958.1962
2023-04-09T02:07:55.895Z,958.2069
2023-04-09T02:08:57.613Z,958.2184
2023-04-09T02:09:59.283Z,958.2246
2023-04-09T02:11:00.840Z,958.2485
2023-04-09T02:12:02.542Z,958.2715
2023-04-09T02:13:04.157Z,958.2408
2023-04-09T02:14:05.990Z,958.2108
2023-04-09T02:15:07.595Z,958.1908
2023-04-09T02:16:09.178Z,958.2015
2023-04-09T02:17:10.796Z,958.2047
2023-04-09T02:18:12.451Z,958.1992
2023-04-09T02:19:14.076Z,958.2031
2023-04-09T02:20:15.820Z,958.1800
2023-04-09T02:21:17.353Z,958.1677
2023-04-09T02:22:19.019Z,958.1539
2023-04-09T02:23:20.728Z,958.1323
2023-04-09T02:24:22.447Z,958.1369
2023-04-09T02:25:24.078Z,958.1554
2023-04-09T02:26:25.642Z,958.1315
2023-04-09T02:27:27.406Z,958.1053
2023-04-09T02:28:29.049Z,958.1008
2023-04-09T02:29:30.649Z,958.0992
2023-04-09T02:30:32.343Z,958.1115
2023-04-09T02:31:34.023Z,958.1200
2023-04-09T02:32:35.744Z,958.1230
2023-04-09T02:33:37.353Z,958.1023
2023-04-09T02:34:39.059Z,958.0839
2023-04-09T02:35:40.670Z,958.0946
2023-04-09T02:36:42.334Z,958.1023
2023-04-09T02:37:44.014Z,958.1061
2023-04-09T02:38:45.604Z,958.1138
2023-04-09T02:39:47.406Z,958.1208
2023-04-09T02:40:48.948Z,958.1215
2023-04-09T02:41:50.642Z,958.0916
2023-04-09T02:42:52.172Z,958.0969
2023-04-09T02:43:53.910Z,958.0808
2023-04-09T02:44:55.577Z,958.0654
2023-04-09T02:45:57.459Z,958.0892
2023-04-09T02:46:58.780Z,958.0654
2023-04-09T02:48:00.501Z,958.0554
2023-04-09T02:49:02.858Z,958.0723
2023-04-09T02:50:03.897Z,958.0630
2023-04-09T02:51:05.597Z,958.0354
2023-04-09T02:52:07.114Z,958.0231
2023-04-09T02:53:08.894Z,958.0792
2023-04-09T02:54:10.412Z,958.1130
2023-04-09T02:55:12.069Z,958.1016
2023-04-09T02:56:13.815Z,958.0669
2023-04-09T02:57:15.261Z,957.9931
2023-04-09T02:58:16.992Z,957.9761
2023-04-09T02:59:18.727Z,957.9977
2023-04-09T03:00:20.348Z,957.9938
2023-04-09T03:01:22.135Z,957.9977
2023-04-09T03:02:23.818Z,957.9861
2023-04-09T03:03:26.040Z,958.0085
2023-04-09T03:04:26.980Z,958.0046
2023-04-09T03:05:28.520Z,957.9946
2023-04-09T03:06:30.294Z,958.0070
2023-04-09T03:07:31.856Z,957.9908
2023-04-09T03:08:33.504Z,957.9823
2023-04-09T03:09:35.157Z,957.9562
2023-04-09T03:10:36.820Z,957.9669
2023-04-09T03:11:38.536Z,957.9661
2023-04-09T03:12:40.128Z,957.9646
2023-04-09T03:13:41.820Z,957.9338
2023-04-09T03:14:43.483Z,957.8947
2023-04-09T03:15:45.125Z,957.8900
2023-04-09T03:16:46.781Z,957.8754
2023-04-09T03:17:48.433Z,957.9031
2023-04-09T03:18:50.256Z,957.8885
2023-04-09T03:19:51.686Z,957.8585
2023-04-09T03:20:53.341Z,957.8100
2023-04-09T03:21:55.031Z,957.8046
2023-04-09T03:22:56.638Z,957.8208
2023-04-09T03:23:58.321Z,957.8347
2023-04-09T03:24:59.983Z,957.8223
2023-04-09T03:26:01.616Z,957.8146
2023-04-09T03:27:03.362Z,957.8270
2023-04-09T03:28:04.876Z,957.8423
2023-04-09T03:29:06.616Z,957.8269
2023-04-09T03:30:08.235Z,957.8177
2023-04-09T03:31:09.964Z,957.8292
2023-04-09T03:32:11.545Z,957.8416
2023-04-09T03:33:13.187Z,957.8484
2023-04-09T03:34:14.836Z,957.8392
2023-04-09T03:35:16.464Z,957.8416
2023-04-09T03:36:18.091Z,957.8561
2023-04-09T03:37:19.818Z,957.8700
2023-04-09T03:38:21.408Z,957.8500
2023-04-09T03:39:23.121Z,957.8416
2023-04-09T03:40:24.740Z,957.8592
2023-04-09T03:41:26.469Z,957.8646
2023-04-09T03:42:27.998Z,957.8654
2023-04-09T03:43:29.703Z,957.8423
2023-04-09T03:44:31.954Z,957.8377
2023-04-09T03:45:33.017Z,957.8538
2023-04-09T03:46:34.750Z,957.8854
2023-04-09T03:47:36.354Z,957.8823
2023-04-09T03:48:38.009Z,957.9092
2023-04-09T03:49:39.614Z,957.9223
2023-04-09T03:50:41.252Z,957.9131
2023-04-09T03:51:42.937Z,957.9069
2023-04-09T03:52:44.651Z,957.9084
2023-04-09T03:53:46.335Z,957.9031
2023-04-09T03:54:47.962Z,957.9161
2023-04-09T03:55:49.626Z,957.9031
2023-04-09T03:56:52.068Z,957.8754
2023-04-09T03:57:52.934Z,957.8508
2023-04-09T03:58:54.881Z,957.8561
2023-04-09T03:59:56.248Z,957.8623
2023-04-09T04:00:57.769Z,957.8677
2023-04-09T04:01:59.549Z,957.8730
2023-04-09T04:03:01.372Z,957.8492
2023-04-09T04:04:02.941Z,957.8754
2023-04-09T04:05:04.493Z,957.8846
2023-04-09T04:06:06.160Z,957.8608
2023-04-09T04:07:07.804Z,957.8577
2023-04-09T04:08:09.423Z,957.8661
2023-04-09T04:09:11.023Z,957.8577
2023-04-09T04:10:12.794Z,957.8492
2023-04-09T04:11:14.374Z,957.8362
2023-04-09T04:12:16.020Z,957.8484
2023-04-09T04:13:17.707Z,957.8538
2023-04-09T04:14:19.355Z,957.8608
2023-04-09T04:15:21.044Z,957.8661
2023-04-09T04:16:22.697Z,957.8477
2023-04-09T04:17:24.341Z,957.8600
2023-04-09T04:18:25.957Z,957.8823
2023-04-09T04:19:27.614Z,957.8738
2023-04-09T04:20:29.244Z,957.8700
2023-04-09T04:21:30.919Z,957.8646
2023-04-09T04:22:32.602Z,957.8546
2023-04-09T04:23:34.250Z,957.8408
2023-04-09T04:24:35.901Z,957.8377
2023-04-09T04:25:37.541Z,957.8538
2023-04-09T04:26:39.229Z,957.8730
2023-04-09T04:27:40.893Z,957.8669
2023-04-09T04:28:42.556Z,957.8839
2023-04-09T04:29:44.141Z,957.9039
2023-04-09T04:30:45.867Z,957.9054
2023-04-09T04:31:47.497Z,957.9100
2023-04-09T04:32:49.097Z,957.9039
2023-04-09T04:33:50.782Z,957.9485
2023-04-09T04:34:52.425Z,957.9861
2023-04-09T04:35:54.144Z,957.9908
2023-04-09T04:36:55.633Z,957.9861
2023-04-09T04:37:57.399Z,958.0308
2023-04-09T04:38:59.067Z,958.0323
2023-04-09T04:40:00.666Z,958.0192
2023-04-09T04:41:02.306Z,958.0208
2023-04-09T04:42:03.947Z,958.0208
2023-04-09T04:43:05.665Z,958.0246
2023-04-09T04:44:07.311Z,958.0285
2023-04-09T04:45:09.052Z,958.0538
2023-04-09T04:46:10.622Z,958.0670
2023-04-09T04:47:12.244Z,958.0538
2023-04-09T04:48:13.917Z,958.0670
2023-04-09T04:49:16.324Z,958.0715
2023-04-09T04:50:17.256Z,958.0869
2023-04-09T04:51:18.841Z,958.0961
2023-04-09T04:52:20.475Z,958.1038
2023-04-09T04:53:22.139Z,958.1754
2023-04-09T04:54:23.842Z,958.1785
2023-04-09T04:55:26.505Z,958.1908
2023-04-09T04:56:27.114Z,958.1823
2023-04-09T04:57:28.939Z,958.1616
2023-04-09T04:58:30.423Z,958.1592
2023-04-09T04:59:32.200Z,958.1408
2023-04-09T05:00:33.734Z,958.1323
2023-04-09T05:01:35.418Z,958.1400
2023-04-09T05:02:37.186Z,958.1385
2023-04-09T05:03:38.779Z,958.1462
2023-04-09T05:04:40.392Z,958.1700
2023-04-09T05:05:42.002Z,958.1730
2023-04-09T05:06:43.662Z,958.1685
2023-04-09T05:07:45.306Z,958.1838
2023-04-09T05:08:47.009Z,958.2031
2023-04-09T05:09:48.626Z,958.2084
2023-04-09T05:10:50.220Z,958.2100
2023-04-09T05:11:51.930Z,958.2253
2023-04-09T05:12:53.611Z,958.2223
2023-04-09T05:13:55.186Z,958.2246
2023-04-09T05:14:56.986Z,958.2246
2023-04-09T05:15:58.630Z,958.2354
2023-04-09T05:17:00.216Z,958.2285
2023-04-09T05:18:01.925Z,958.2323
2023-04-09T05:19:03.528Z,958.2277
2023-04-09T05:20:05.949Z,958.2092
2023-04-09T05:21:07.457Z,958.1908
2023-04-09T05:22:08.464Z,958.1970
2023-04-09T05:23:10.082Z,958.2246
2023-04-09T05:24:11.737Z,958.2285
2023-04-09T05:25:13.410Z,958.2161
2023-04-09T05:26:14.995Z,958.1992
2023-04-09T05:27:16.722Z,958.2047
2023-04-09T05:28:18.434Z,958.2208
2023-04-09T05:29:20.058Z,958.2231
2023-04-09T05:30:21.724Z,958.2585
2023-04-09T05:31:23.257Z,958.2777
2023-04-09T05:32:25.221Z,958.2708
2023-04-09T05:33:26.679Z,958.2608
2023-04-09T05:34:28.265Z,958.2408
2023-04-09T05:35:29.983Z,958.2169
2023-04-09T05:36:31.577Z,958.2184
2023-04-09T05:37:33.499Z,958.2292
2023-04-09T05:38:34.965Z,958.2292
2023-04-09T05:39:37.502Z,958.2285
2023-04-09T05:40:38.298Z,958.2084
2023-04-09T05:41:39.857Z,958.1970
2023-04-09T05:42:41.537Z,958.1992
2023-04-09T05:43:43.439Z,958.2308
2023-04-09T05:44:44.857Z,958.2338
2023-04-09T05:45:46.718Z,958.2169
2023-04-09T05:46:48.189Z,958.2154
2023-04-09T05:47:49.824Z,958.1992
2023-04-09T05:48:51.595Z,958.1992
2023-04-09T05:49:53.246Z,958.1823
2023-04-09T05:50:55.841Z,958.1992
2023-04-09T05:51:56.517Z,958.1700
2023-04-09T05:52:58.191Z,958.1631
2023-04-09T05:53:59.858Z,958.1908
2023-04-09T05:55:01.492Z,958.2208
2023-04-09T05:56:03.126Z,958.2285
2023-04-09T05:57:04.811Z,958.2238
2023-04-09T05:58:06.499Z,958.1992
2023-04-09T05:59:07.995Z,958.1985
2023-04-09T06:00:10.102Z,958.2023
2023-04-09T06:01:11.356Z,958.2169
2023-04-09T06:02:13.004Z,958.2269
2023-04-09T06:03:14.777Z,958.2061
2023-04-09T06:04:16.406Z,958.1846
2023-04-09T06:05:18.581Z,958.1785
2023-04-09T06:06:19.632Z,958.2047
2023-04-09T06:07:21.241Z,958.1900
2023-04-09T06:08:22.958Z,958.1892
2023-04-09T06:09:24.612Z,958.2108
2023-04-09T06:10:26.537Z,958.2238
2023-04-09T06:11:28.009Z,958.2246
2023-04-09T06:12:29.911Z,958.2261
2023-04-09T06:13:31.202Z,958.2215
2023-04-09T06:14:32.882Z,958.2485
2023-04-09T06:15:34.555Z,958.2615
2023-04-09T06:16:36.130Z,958.2747
2023-04-09T06:17:37.804Z,958.2839
2023-04-09T06:18:39.611Z,958.2654
2023-04-09T06:19:41.170Z,958.2823
2023-04-09T06:20:42.911Z,958.2846
2023-04-09T06:21:44.297Z,958.2769
2023-04-09T06:22:45.987Z,958.2685
2023-04-09T06:23:47.642Z,958.2538
2023-04-09T06:24:49.279Z,958.2546
2023-04-09T06:25:50.972Z,958.2677
2023-04-09T06:26:52.607Z,958.2816
2023-04-09T06:27:54.212Z,958.2831
2023-04-09T06:28:55.877Z,958.2277
2023-04-09T06:29:57.550Z,958.2277
2023-04-09T06:30:59.300Z,958.2546
2023-04-09T06:32:00.786Z,958.2877
2023-04-09T06:33:02.572Z,958.3023
2023-04-09T06:34:04.103Z,958.2508
2023-04-09T06:35:05.826Z,958.2400
2023-04-09T06:36:08.484Z,958.2415
2023-04-09T06:37:09.021Z,958.2546
2023-04-09T06:38:11.362Z,958.2747
2023-04-09T06:39:13.168Z,958.2700
2023-04-09T06:40:14.071Z,958.2500
2023-04-09T06:41:15.930Z,958.2600
2023-04-09T06:42:17.373Z,958.2931
2023-04-09T06:43:18.964Z,958.3031
2023-04-09T06:44:20.670Z,958.3054
2023-04-09T06:45:22.247Z,958.3015
2023-04-09T06:46:24.033Z,958.2923
2023-04-09T06:47:25.621Z,958.2731
2023-04-09T06:48:27.930Z,958.2731
2023-04-09T06:49:28.893Z,958.2615
2023-04-09T06:50:30.557Z,958.2615
2023-04-09T06:51:32.541Z,958.2754
2023-04-09T06:52:33.937Z,958.2792
2023-04-09T06:53:35.519Z,958.3008
2023-04-09T06:54:37.991Z,958.3154
2023-04-09T06:55:38.885Z,958.3185
2023-04-09T06:56:40.962Z,958.3308
2023-04-09T06:57:42.143Z,958.3623
2023-04-09T06:58:43.837Z,958.3831
2023-04-09T06:59:45.486Z,958.3839
2023-04-09T07:00:47.089Z,958.3823
2023-04-09T07:01:49.385Z,958.3815
2023-04-09T07:02:50.673Z,958.3870
2023-04-09T07:03:52.625Z,958.3915
2023-04-09T07:04:53.729Z,958.3947
2023-04-09T07:05:55.432Z,958.3585
2023-04-09T07:06:58.150Z,958.3569
2023-04-09T07:07:58.703Z,958.3715
2023-04-09T07:09:00.461Z,958.3685
2023-04-09T07:10:02.019Z,958.3738
2023-04-09T07:11:03.669Z,958.3800
2023-04-09T07:12:05.386Z,958.3484
2023-04-09T07:13:07.495Z,958.3239
2023-04-09T07:14:08.625Z,958.3239
2023-04-09T07:15:10.318Z,958.3461
2023-04-09T07:16:11.943Z,958.3423
2023-04-09T07:17:13.634Z,958.3315
2023-04-09T07:18:15.265Z,958.2954
2023-04-09T07:19:16.777Z,958.2846
2023-04-09T07:20:18.566Z,958.2877
2023-04-09T07:21:20.165Z,958.3270
2023-04-09T07:22:22.128Z,958.3461
2023-04-09T07:23:23.577Z,958.3461
2023-04-09T07:24:25.301Z,958.3292
2023-04-09T07:25:26.778Z,958.3492
2023-04-09T07:26:28.509Z,958.3877
2023-04-09T07:27:30.101Z,958.4323
2023-04-09T07:28:31.757Z,958.4315
2023-04-09T07:29:33.586Z,958.3954
2023-04-09T07:30:35.013Z,958.3846
2023-04-09T07:31:36.619Z,958.4039
2023-04-09T07:32:38.444Z,958.3954
2023-04-09T07:33:39.957Z,958.3730
2023-04-09T07:34:41.597Z,958.3400
2023-04-09T07:35:43.216Z,958.3239
2023-04-09T07:36:44.954Z,958.3384
2023-04-09T07:37:47.003Z,958.3416
2023-04-09T07:38:48.551Z,958.3331
2023-04-09T07:39:49.888Z,958.3177
2023-04-09T07:40:51.902Z,958.3038
2023-04-09T07:41:53.148Z,958.2938
2023-04-09T07:42:54.834Z,958.3200
2023-04-09T07:43:56.565Z,958.3400
2023-04-09T07:44:58.250Z,958.3400
2023-04-09T07:45:59.853Z,958.3423
2023-04-09T07:47:01.557Z,958.3531
2023-04-09T07:48:03.510Z,958.3815
2023-04-09T07:49:04.943Z,958.4169
2023-04-09T07:50:06.351Z,958.4092
2023-04-09T07:51:08.934Z,958.4161
2023-04-09T07:52:09.666Z,958.4084
2023-04-09T07:53:12.004Z,958.4323
2023-04-09T07:54:13.094Z,958.4708
2023-04-09T07:55:15.154Z,958.4769
2023-04-09T07:56:16.223Z,958.4592
2023-04-09T07:57:17.869Z,958.4654
2023-04-09T07:58:19.613Z,958.4769
2023-04-09T07:59:21.217Z,958.4731
2023-04-09T08:00:22.856Z,958.4738
2023-04-09T08:01:24.508Z,958.4769
2023-04-09T08:02:26.364Z,958.4423
2023-04-09T08:03:28.115Z,958.4938
2023-04-09T08:04:29.487Z,958.4861
2023-04-09T08:05:31.142Z,958.4738
2023-04-09T08:06:32.737Z,958.4792
2023-04-09T08:07:34.482Z,958.4477
2023-04-09T08:08:36.103Z,958.4915
2023-04-09T08:09:37.761Z,958.5123
2023-04-09T08:10:39.368Z,958.4861
2023-04-09T08:11:40.984Z,958.4777
2023-04-09T08:12:42.706Z,958.4861
2023-04-09T08:13:44.622Z,958.5015
2023-04-09T08:14:45.940Z,958.5361
2023-04-09T08:15:47.635Z,958.5200
2023-04-09T08:16:49.372Z,958.4992
2023-04-09T08:17:51.497Z,958.5231
2023-04-09T08:18:52.932Z,958.5223
2023-04-09T08:19:54.586Z,958.5377
2023-04-09T08:20:55.839Z,958.5523
2023-04-09T08:21:57.567Z,958.5577
2023-04-09T08:22:59.207Z,958.5254
2023-04-09T08:24:00.833Z,958.5123
2023-04-09T08:25:03.537Z,958.5046
2023-04-09T08:26:04.073Z,958.5308
2023-04-09T08:27:05.748Z,958.5453
2023-04-09T08:28:07.410Z,958.5446
2023-04-09T08:29:09.109Z,958.4938
2023-04-09T08:30:10.730Z,958.4708
2023-04-09T08:31:12.448Z,958.5038
2023-04-09T08:32:14.045Z,958.5485
2023-04-09T08:33:15.641Z,958.5600
2023-04-09T08:34:17.584Z,958.5239
2023-04-09T08:35:19.058Z,958.4908
2023-04-09T08:36:21.593Z,958.5054
2023-04-09T08:37:22.419Z,958.5292
2023-04-09T08:38:24.094Z,958.5646
2023-04-09T08:39:25.792Z,958.5638
2023-04-09T08:40:27.581Z,958.5131
2023-04-09T08:41:28.944Z,958.5085
2023-04-09T08:42:30.545Z,958.5485
2023-04-09T08:43:52.531Z,958.5700
2023-04-09T08:44:33.963Z,958.5867
2023-04-09T08:45:35.604Z,958.6108
2023-04-09T08:46:37.147Z,958.5577
2023-04-09T08:47:38.934Z,958.5754
2023-04-09T08:48:40.586Z,958.6154
2023-04-09T08:49:43.034Z,958.6462
2023-04-09T08:50:43.767Z,958.7054
2023-04-09T08:51:45.450Z,958.6777
2023-04-09T08:52:47.132Z,958.6492
2023-04-09T08:53:48.723Z,958.6792
2023-04-09T08:54:50.447Z,958.6977
2023-04-09T08:55:53.152Z,958.7762
2023-04-09T08:56:53.812Z,958.6693
2023-04-09T08:57:56.094Z,958.6431
2023-04-09T08:58:57.139Z,958.6754
2023-04-09T08:59:59.121Z,958.6977
2023-04-09T09:01:00.488Z,958.6523
2023-04-09T09:02:02.087Z,958.6715
2023-04-09T09:03:03.824Z,958.7023
2023-04-09T09:04:05.380Z,958.6800
2023-04-09T09:05:07.163Z,958.6700
2023-04-09T09:06:08.646Z,958.6708
2023-04-09T09:07:10.376Z,958.7023
2023-04-09T09:08:12.607Z,958.7346
2023-04-09T09:09:13.576Z,958.7123
2023-04-09T09:10:15.714Z,958.6854
2023-04-09T09:11:16.933Z,958.6946
2023-04-09T09:12:18.654Z,958.7346
2023-04-09T09:13:20.266Z,958.7477
2023-04-09T09:14:21.947Z,958.7392
2023-04-09T09:15:23.714Z,958.7123
2023-04-09T09:16:25.187Z,958.7138
2023-04-09T09:17:26.947Z,958.6908
2023-04-09T09:18:28.521Z,958.7269
2023-04-09T09:19:30.656Z,958.7369
2023-04-09T09:20:32.326Z,958.7200
2023-04-09T09:21:33.591Z,958.7308
2023-04-09T09:22:35.148Z,958.7054
2023-04-09T09:23:36.880Z,958.6923
2023-04-09T09:24:38.494Z,958.7084
2023-04-09T09:25:40.128Z,958.7253
2023-04-09T09:26:41.850Z,958.7238
2023-04-09T09:27:43.402Z,958.7323
2023-04-09T09:28:45.050Z,958.7092
2023-04-09T09:29:46.714Z,958.7246
2023-04-09T09:30:49.526Z,958.7154
2023-04-09T09:31:50.079Z,958.7092
2023-04-09T09:32:51.765Z,958.7408
2023-04-09T09:33:53.308Z,958.7416
2023-04-09T09:34:54.874Z,958.7000
2023-04-09T09:35:56.730Z,958.6892
2023-04-09T09:36:58.268Z,958.7054
2023-04-09T09:37:59.954Z,958.7223
2023-04-09T09:39:01.586Z,958.7108
2023-04-09T09:40:03.180Z,958.6900
2023-04-09T09:41:04.878Z,958.6970
2023-04-09T09:42:06.482Z,958.6800
2023-04-09T09:43:08.205Z,958.7023
2023-04-09T09:44:09.701Z,958.7069
2023-04-09T09:45:11.454Z,958.7154
2023-04-09T09:46:13.231Z,958.7039
2023-04-09T09:47:14.836Z,958.7047
2023-04-09T09:48:16.501Z,958.6546
2023-04-09T09:49:18.112Z,958.6446
2023-04-09T09:50:19.693Z,958.6823
2023-04-09T09:51:21.394Z,958.6931
2023-04-09T09:52:23.084Z,958.6584
2023-04-09T09:53:24.665Z,958.5931
2023-04-09T09:54:26.365Z,958.5908
2023-04-09T09:55:28.144Z,958.6477
2023-04-09T09:56:29.792Z,958.6962
2023-04-09T09:57:31.421Z,958.6331
2023-04-09T09:58:33.094Z,958.5954
2023-04-09T09:59:34.674Z,958.5831
2023-04-09T10:00:36.359Z,958.6185
2023-04-09T10:01:38.148Z,958.6123
2023-04-09T10:02:39.699Z,958.6400
2023-04-09T10:03:41.372Z,958.6146
2023-04-09T10:04:43.068Z,958.6008
2023-04-09T10:05:44.583Z,958.6077
2023-04-09T10:06:46.354Z,958.5892
2023-04-09T10:07:47.885Z,958.6516
2023-04-09T10:08:49.710Z,958.6631
2023-04-09T10:09:51.214Z,958.6238
2023-04-09T10:10:52.991Z,958.5662
2023-04-09T10:11:54.670Z,958.5792
2023-04-09T10:12:56.476Z,958.5916
2023-04-09T10:13:57.795Z,958.5977
2023-04-09T10:14:59.510Z,958.5916
2023-04-09T10:16:01.144Z,958.5884
2023-04-09T10:17:02.856Z,958.5670
2023-04-09T10:18:04.475Z,958.5946
2023-04-09T10:19:06.075Z,958.5992
2023-04-09T10:20:07.722Z,958.6038
2023-04-09T10:21:09.369Z,958.6238
2023-04-09T10:22:11.052Z,958.5900
2023-04-09T10:23:13.215Z,958.5662
2023-04-09T10:24:14.278Z,958.5400
2023-04-09T10:25:15.984Z,958.5008
2023-04-09T10:26:17.716Z,958.5446
2023-04-09T10:27:19.390Z,958.5546
2023-04-09T10:28:20.963Z,958.5308
2023-04-09T10:29:22.650Z,958.4746
2023-04-09T10:30:24.220Z,958.4800
2023-04-09T10:31:25.908Z,958.5038
2023-04-09T10:32:28.604Z,958.5139
2023-04-09T10:33:29.245Z,958.4738
2023-04-09T10:34:30.939Z,958.4485
2023-04-09T10:35:32.475Z,958.4392
2023-04-09T10:36:34.165Z,958.4569
2023-04-09T10:37:35.873Z,958.4639
2023-04-09T10:38:37.471Z,958.4700
2023-04-09T10:39:39.161Z,958.4631
2023-04-09T10:40:40.735Z,958.4169
2023-04-09T10:41:42.442Z,958.3661
2023-04-09T10:42:44.143Z,958.4138
2023-04-09T10:43:45.751Z,958.4323
2023-04-09T10:44:47.415Z,958.4330
2023-04-09T10:45:49.061Z,958.4161
2023-04-09T10:46:50.803Z,958.3546
2023-04-09T10:47:52.842Z,958.3623
2023-04-09T10:48:54.131Z,958.3977
2023-04-09T10:49:55.708Z,958.4169
2023-04-09T10:50:57.322Z,958.4246
2023-04-09T10:51:59.000Z,958.4023
2023-04-09T10:53:00.735Z,958.3969
2023-04-09T10:54:02.298Z,958.3915
2023-04-09T10:55:03.913Z,958.3762
2023-04-09T10:56:05.562Z,958.3561
2023-04-09T10:57:07.307Z,958.3515
2023-04-09T10:58:11.296Z,958.3608
2023-04-09T10:59:10.595Z,958.3369
2023-04-09T11:00:12.541Z,958.2746
2023-04-09T11:01:13.851Z,958.2885
2023-04-09T11:02:15.564Z,958.3000
2023-04-09T11:03:17.370Z,958.3400
2023-04-09T11:04:18.648Z,958.3384
2023-04-09T11:05:20.320Z,958.2985
2023-04-09T11:06:21.984Z,958.2377
2023-04-09T11:07:23.692Z,958.2769
2023-04-09T11:08:25.313Z,958.3046
2023-04-09T11:09:26.910Z,958.3062
2023-04-09T11:10:28.578Z,958.2600
2023-04-09T11:11:30.241Z,958.2300
2023-04-09T11:12:31.878Z,958.2338
2023-04-09T11:13:33.541Z,958.2285
2023-04-09T11:14:35.180Z,958.2961
2023-04-09T11:15:36.826Z,958.2554
2023-04-09T11:16:38.664Z,958.2315
2023-04-09T11:17:40.277Z,958.2523
2023-04-09T11:18:42.172Z,958.2492
2023-04-09T11:19:43.504Z,958.2462
2023-04-09T11:20:45.078Z,958.2462
2023-04-09T11:21:46.817Z,958.2139
2023-04-09T11:22:48.419Z,958.2077
2023-04-09T11:23:50.155Z,958.2108
2023-04-09T11:24:51.770Z,958.2031
2023-04-09T11:25:53.368Z,958.1862
2023-04-09T11:26:55.092Z,958.1385
2023-04-09T11:27:56.647Z,958.2092
2023-04-09T11:28:59.145Z,958.1854
2023-04-09T11:30:00.134Z,958.1923
2023-04-09T11:31:01.794Z,958.2039
2023-04-09T11:32:03.262Z,958.2000
2023-04-09T11:33:05.129Z,958.2161
2023-04-09T11:34:06.667Z,958.2161
2023-04-09T11:35:08.243Z,958.1885
2023-04-09T11:36:09.854Z,958.1908
2023-04-09T11:37:11.546Z,958.1977
2023-04-09T11:38:14.048Z,958.2108
2023-04-09T11:39:15.145Z,958.2261
2023-04-09T11:40:16.540Z,958.1654
2023-04-09T11:41:18.188Z,958.1685
2023-04-09T11:42:19.755Z,958.1738
2023-04-09T11:43:21.459Z,958.1738
2023-04-09T11:44:23.701Z,958.1223
2023-04-09T11:45:24.722Z,958.1100
2023-04-09T11:46:27.456Z,958.1100
2023-04-09T11:47:28.045Z,958.1108
2023-04-09T11:48:29.784Z,958.0900
2023-04-09T11:49:32.245Z,958.0916
2023-04-09T11:50:33.027Z,958.1154
2023-04-09T11:51:34.749Z,958.1523
2023-04-09T11:52:36.452Z,958.1230
2023-04-09T11:53:38.073Z,958.1169
2023-04-09T11:54:39.740Z,958.1362
2023-04-09T11:55:41.378Z,958.1731
2023-04-09T11:56:43.075Z,958.1800
2023-04-09T11:57:44.681Z,958.1246
2023-04-09T11:58:46.327Z,958.0961
2023-04-09T11:59:48.129Z,958.0823
2023-04-09T12:00:49.676Z,958.0946
2023-04-09T12:01:51.515Z,958.1238
2023-04-09T12:02:53.301Z,958.1077
2023-04-09T12:03:54.675Z,958.0847